Time;durP1;ratioP1;P1;durP2;ratioP2;P2;SDS_P1;SDS_P2;PMS_P1;PMS_P2;Temp;Humidity;BMP_temperature;BMP_pressure;BME280_temperature;BME280_humidity;BME280_pressure;Samples;Min_cycle;Max_cycle;Signal;HPM_P1;HPM_P2
2021/09/09 00:02:20;;;;;;;24.90;17.42;;;;;;;17.79;81.95;101207.97;6182514;23;20036;-76
2021/09/09 00:04:45;;;;;;;24.88;17.48;;;;;;;17.83;81.54;101213.22;6183307;23;20004;-76
2021/09/09 00:07:11;;;;;;;23.98;18.00;;;;;;;17.84;81.34;101216.78;6184318;23;20139;-76
2021/09/09 00:09:36;;;;;;;22.55;17.98;;;;;;;17.81;81.59;101214.13;6183301;23;20009;-77
2021/09/09 00:12:02;;;;;;;27.77;18.27;;;;;;;17.79;81.52;101208.81;6186195;23;20365;-74
2021/09/09 00:14:28;;;;;;;25.52;17.40;;;;;;;17.75;82.01;101215.06;6185006;23;20013;-77
2021/09/09 00:16:53;;;;;;;20.73;16.13;;;;;;;17.68;82.20;101218.69;6185993;23;20005;-76
2021/09/09 00:19:18;;;;;;;24.77;18.00;;;;;;;17.59;82.49;101214.28;6185326;23;20064;-76
2021/09/09 00:21:44;;;;;;;25.27;18.80;;;;;;;17.52;82.72;101213.44;6185958;23;20017;-77
2021/09/09 00:24:10;;;;;;;22.50;17.05;;;;;;;17.48;82.62;101203.72;6185043;23;20072;-75
2021/09/09 00:26:35;;;;;;;26.33;18.10;;;;;;;17.43;82.97;101197.56;6185443;23;20412;-75
2021/09/09 00:29:00;;;;;;;24.67;17.85;;;;;;;17.39;83.06;101209.13;6183655;23;20064;-75
2021/09/09 00:31:26;;;;;;;25.42;18.67;;;;;;;17.34;83.14;101192.28;6183307;23;20005;-76
2021/09/09 00:33:51;;;;;;;24.75;18.42;;;;;;;17.29;83.19;101196.75;6185222;23;20005;-76
2021/09/09 00:36:17;;;;;;;24.27;17.73;;;;;;;17.27;83.03;101193.19;6184098;23;20232;-76
2021/09/09 00:38:42;;;;;;;24.60;18.08;;;;;;;17.28;83.35;101198.53;6185652;23;20025;-75
2021/09/09 00:41:09;;;;;;;24.52;17.95;;;;;;;17.25;82.93;101195.00;6186237;23;20005;-76
2021/09/09 00:43:34;;;;;;;25.42;17.88;;;;;;;17.19;83.11;101191.47;6185234;23;20008;-77
2021/09/09 00:45:59;;;;;;;25.73;18.80;;;;;;;17.15;83.45;101194.16;6183715;23;20056;-76
2021/09/09 00:48:25;;;;;;;24.70;19.10;;;;;;;17.10;83.40;101190.63;6184870;23;20059;-76
2021/09/09 00:50:52;;;;;;;21.48;17.42;;;;;;;17.06;83.55;101188.88;6182487;23;20008;-77
2021/09/09 00:53:19;;;;;;;27.77;17.90;;;;;;;17.02;83.49;101188.91;6183559;23;20091;-76
2021/09/09 00:55:47;;;;;;;23.17;17.65;;;;;;;17.02;83.54;101185.34;6185992;23;20071;-75
2021/09/09 00:58:13;;;;;;;26.70;18.42;;;;;;;16.99;83.95;101178.28;6185005;23;20016;-75
2021/09/09 01:00:39;;;;;;;29.75;18.92;;;;;;;17.09;83.27;101180.88;6180953;23;20005;-76
2021/09/09 01:03:08;;;;;;;25.40;18.33;;;;;;;17.09;83.31;101172.91;6184382;23;20333;-74
2021/09/09 01:05:34;;;;;;;24.25;18.75;;;;;;;17.06;83.44;101168.50;6184400;23;20020;-77
2021/09/09 01:08:00;;;;;;;28.90;18.70;;;;;;;17.03;83.64;101163.19;6185426;23;20063;-76
2021/09/09 01:10:25;;;;;;;33.50;18.58;;;;;;;16.98;83.85;101165.00;6184295;23;20037;-75
2021/09/09 01:12:50;;;;;;;26.05;18.58;;;;;;;16.91;83.97;101163.25;6185520;23;20012;-75
2021/09/09 01:15:16;;;;;;;28.10;18.88;;;;;;;16.87;83.92;101159.69;6183334;23;20341;-75
2021/09/09 01:17:41;;;;;;;25.98;19.05;;;;;;;16.81;84.27;101160.59;6183754;23;20001;-76
2021/09/09 01:20:08;;;;;;;30.73;19.63;;;;;;;16.76;84.54;101159.72;6183983;23;20016;-77
2021/09/09 01:22:34;;;;;;;26.98;20.08;;;;;;;16.72;84.73;101157.97;6184238;23;20028;-77
2021/09/09 01:24:59;;;;;;;25.83;19.17;;;;;;;16.69;84.96;101153.56;6184791;23;20072;-76
2021/09/09 01:27:25;;;;;;;29.08;19.48;;;;;;;16.66;84.71;101155.34;6185863;23;20035;-76
2021/09/09 01:29:50;;;;;;;29.30;20.25;;;;;;;16.63;85.34;101150.03;6184022;23;20375;-77
2021/09/09 01:32:16;;;;;;;29.08;20.50;;;;;;;16.60;85.40;101145.63;6184673;23;20439;-75
2021/09/09 01:34:42;;;;;;;31.23;20.38;;;;;;;16.56;85.74;101150.94;6182936;23;20040;-75
2021/09/09 01:37:10;;;;;;;30.65;20.45;;;;;;;16.52;85.53;101150.97;6183192;23;20004;-75
2021/09/09 01:39:36;;;;;;;28.10;21.02;;;;;;;16.50;85.40;101147.41;6184047;23;20009;-75
2021/09/09 01:42:02;;;;;;;30.40;20.65;;;;;;;16.48;85.62;101153.63;6184029;23;20009;-76
2021/09/09 01:44:30;;;;;;;30.63;21.85;;;;;;;16.47;86.02;101151.88;6184163;23;20023;-74
2021/09/09 01:46:56;;;;;;;33.35;22.15;;;;;;;16.43;86.07;101156.31;6183087;23;20001;-75
2021/09/09 01:49:21;;;;;;;30.58;21.17;;;;;;;16.38;86.24;101158.09;6184380;23;20079;-75
2021/09/09 01:51:47;;;;;;;32.20;22.63;;;;;;;16.32;86.65;101159.00;6185024;23;20005;-76
2021/09/09 01:54:12;;;;;;;31.52;21.98;;;;;;;16.23;86.78;101153.69;6183841;23;20036;-75
2021/09/09 01:56:38;;;;;;;32.45;23.15;;;;;;;16.15;87.19;101151.03;6183785;23;20028;-76
2021/09/09 01:59:04;;;;;;;35.22;22.33;;;;;;;16.10;87.26;101150.19;6184543;23;20012;-76
2021/09/09 02:01:29;;;;;;;30.80;22.08;;;;;;;16.10;87.04;101152.84;6183061;23;20012;-76
2021/09/09 02:03:55;;;;;;;29.55;21.98;;;;;;;16.10;87.38;101144.88;6183890;23;20008;-76
2021/09/09 02:06:21;;;;;;;30.52;21.92;;;;;;;16.11;87.29;101145.75;6182917;23;20357;-75
2021/09/09 02:08:47;;;;;;;31.77;23.63;;;;;;;16.11;87.53;101143.97;6183730;23;20421;-76
2021/09/09 02:11:12;;;;;;;30.33;23.13;;;;;;;16.09;87.39;101145.75;6184787;23;20005;-77
2021/09/09 02:13:39;;;;;;;35.15;23.60;;;;;;;16.07;87.59;101149.28;6183065;23;20009;-75
2021/09/09 02:16:05;;;;;;;30.88;22.80;;;;;;;16.09;87.41;101153.72;6184022;23;20479;-76
2021/09/09 02:18:31;;;;;;;37.97;23.08;;;;;;;16.10;86.97;101150.19;6183556;23;20004;-76
2021/09/09 02:20:56;;;;;;;33.08;22.95;;;;;;;16.06;87.22;101150.19;6185345;23;20017;-77
2021/09/09 02:23:22;;;;;;;28.05;22.15;;;;;;;16.04;87.39;101151.97;6184969;23;20009;-75
2021/09/09 02:25:48;;;;;;;34.28;22.23;;;;;;;16.00;87.44;101151.06;6185332;23;20009;-77
2021/09/09 02:28:13;;;;;;;33.72;22.65;;;;;;;15.97;87.66;101153.72;6183943;23;20000;-75
2021/09/09 02:30:40;;;;;;;34.00;23.17;;;;;;;15.92;87.80;101155.50;6181820;23;20001;-76
2021/09/09 02:33:06;;;;;;;34.08;24.10;;;;;;;15.82;88.36;101157.28;6183549;23;20004;-75
2021/09/09 02:35:31;;;;;;;34.95;23.30;;;;;;;15.78;88.10;101153.69;6184115;23;20438;-75
2021/09/09 02:37:56;;;;;;;34.90;25.45;;;;;;;15.73;88.92;101157.25;6183936;23;20009;-75
2021/09/09 02:40:22;;;;;;;32.05;24.33;;;;;;;15.65;88.93;101152.81;6183725;23;20005;-78
2021/09/09 02:42:47;;;;;;;32.15;24.17;;;;;;;15.59;89.06;101146.63;6183328;23;20435;-76
2021/09/09 02:45:13;;;;;;;34.97;23.35;;;;;;;15.56;89.48;101151.91;6183598;23;20029;-75
2021/09/09 02:47:38;;;;;;;36.22;25.25;;;;;;;15.51;89.75;101152.78;6182961;23;20470;-77
2021/09/09 02:50:06;;;;;;;42.38;26.73;;;;;;;15.44;89.76;101151.03;6183197;23;20001;-76
2021/09/09 02:52:31;;;;;;;36.97;26.08;;;;;;;15.40;90.08;101138.66;6181148;23;20421;-76
2021/09/09 02:54:57;;;;;;;39.63;27.40;;;;;;;15.37;90.30;101136.00;6184878;23;20008;-76
2021/09/09 02:57:22;;;;;;;40.33;26.08;;;;;;;15.32;90.43;101129.81;6183425;23;20008;-75
2021/09/09 02:59:47;;;;;;;39.70;26.67;;;;;;;15.27;90.50;101126.25;6182051;23;20040;-76
2021/09/09 03:02:13;;;;;;;39.58;27.73;;;;;;;15.21;90.69;101126.25;6183111;23;20000;-76
2021/09/09 03:04:38;;;;;;;37.78;27.02;;;;;;;15.15;91.03;101121.78;6183745;23;20416;-76
2021/09/09 03:07:04;;;;;;;37.00;26.48;;;;;;;15.10;91.00;101120.94;6183841;23;20036;-75
2021/09/09 03:09:29;;;;;;;35.03;25.83;;;;;;;15.06;91.02;101127.97;6182724;23;20055;-75
2021/09/09 03:11:55;;;;;;;40.42;26.25;;;;;;;15.04;91.43;101120.91;6183983;23;20332;-76
2021/09/09 03:14:20;;;;;;;37.63;25.73;;;;;;;15.01;91.78;101127.06;6182657;23;20009;-75
2021/09/09 03:16:46;;;;;;;39.92;26.88;;;;;;;14.97;91.62;101106.75;6184120;23;20324;-76
2021/09/09 03:19:11;;;;;;;43.90;27.05;;;;;;;14.94;91.52;101107.63;6180889;23;20057;-76
2021/09/09 03:21:37;;;;;;;44.35;27.60;;;;;;;14.95;91.64;101106.75;6183409;23;20076;-76
2021/09/09 03:24:02;;;;;;;39.83;27.13;;;;;;;14.95;91.75;101103.22;6183015;23;20044;-75
2021/09/09 03:26:28;;;;;;;41.45;27.55;;;;;;;14.95;91.71;101098.78;6183504;23;20145;-74
2021/09/09 03:28:53;;;;;;;44.03;26.15;;;;;;;14.92;91.82;101104.09;6183495;23;20060;-75
2021/09/09 03:31:18;;;;;;;43.15;28.88;;;;;;;14.88;91.79;101102.31;6183078;23;20004;-76
2021/09/09 03:33:44;;;;;;;42.38;29.08;;;;;;;14.83;92.04;101110.25;6183107;23;20079;-76
2021/09/09 03:36:09;;;;;;;41.47;29.30;;;;;;;14.81;92.33;101101.41;6182083;23;20072;-75
2021/09/09 03:38:35;;;;;;;45.55;27.85;;;;;;;14.78;92.16;101106.69;6183789;23;20006;-77
2021/09/09 03:41:00;;;;;;;42.17;28.10;;;;;;;14.78;92.29;101117.28;6184354;23;20332;-76
2021/09/09 03:43:26;;;;;;;43.63;29.38;;;;;;;14.78;91.99;101119.06;6183369;23;20064;-75
2021/09/09 03:45:51;;;;;;;46.63;28.98;;;;;;;14.74;92.22;101120.78;6182971;23;20071;-75
2021/09/09 03:48:17;;;;;;;43.50;28.08;;;;;;;14.71;92.06;101119.91;6183040;23;20064;-75
2021/09/09 03:50:42;;;;;;;42.75;29.80;;;;;;;14.72;92.28;101119.00;6184203;23;20005;-75
2021/09/09 03:53:08;;;;;;;43.25;28.52;;;;;;;14.70;92.55;101123.44;6182326;23;20114;-75
2021/09/09 03:55:33;;;;;;;46.42;30.27;;;;;;;14.67;92.84;101111.06;6181596;23;20012;-75
2021/09/09 03:57:59;;;;;;;42.47;29.98;;;;;;;14.66;92.98;101104.91;6184237;23;20085;-76
2021/09/09 04:00:24;;;;;;;46.15;28.45;;;;;;;14.65;92.81;101102.25;6181365;23;20005;-77
2021/09/09 04:02:50;;;;;;;44.17;29.83;;;;;;;14.65;92.76;101107.53;6184720;23;20001;-76
2021/09/09 04:05:15;;;;;;;45.80;29.05;;;;;;;14.64;92.90;101105.78;6182719;23;20048;-75
2021/09/09 04:07:40;;;;;;;48.58;30.63;;;;;;;14.63;92.93;101101.34;6184526;23;20439;-76
2021/09/09 04:10:07;;;;;;;47.35;31.83;;;;;;;14.66;92.64;101096.94;6181110;23;20012;-76
2021/09/09 04:12:33;;;;;;;44.53;29.77;;;;;;;14.68;92.62;101102.25;6183091;23;20004;-75
2021/09/09 04:15:01;;;;;;;44.83;29.95;;;;;;;14.72;92.42;101097.81;6183074;23;20016;-75
2021/09/09 04:17:26;;;;;;;44.45;31.95;;;;;;;14.75;92.13;101103.16;6183469;23;20013;-75
2021/09/09 04:19:52;;;;;;;46.30;31.08;;;;;;;14.78;92.26;101090.78;6184008;23;20005;-75
2021/09/09 04:22:17;;;;;;;47.67;32.95;;;;;;;14.83;91.99;101094.34;6182895;23;20532;-75
2021/09/09 04:24:43;;;;;;;47.75;32.45;;;;;;;14.84;92.02;101090.81;6183450;23;20013;-76
2021/09/09 04:27:08;;;;;;;45.90;32.28;;;;;;;14.89;91.99;101089.94;6182066;23;20413;-75
2021/09/09 04:29:34;;;;;;;45.95;31.02;;;;;;;14.92;91.70;101082.00;6183183;23;20025;-75
2021/09/09 04:31:59;;;;;;;45.70;30.98;;;;;;;14.95;91.66;101082.03;6184082;23;20025;-76
2021/09/09 04:34:24;;;;;;;46.17;32.75;;;;;;;14.98;91.50;101076.72;6182991;23;20023;-76
2021/09/09 04:36:50;;;;;;;49.08;32.63;;;;;;;14.98;91.40;101076.72;6183430;23;20055;-76
2021/09/09 04:39:15;;;;;;;51.97;33.92;;;;;;;15.00;91.23;101080.25;6183196;23;20009;-75
2021/09/09 04:41:41;;;;;;;44.58;32.17;;;;;;;15.00;91.39;101069.66;6183828;23;20056;-75
2021/09/09 04:44:06;;;;;;;51.75;33.50;;;;;;;15.01;91.30;101059.03;6183286;23;20075;-75
2021/09/09 04:46:33;;;;;;;48.05;33.25;;;;;;;15.02;91.41;101062.59;6184332;23;20054;-75
2021/09/09 04:48:58;;;;;;;43.70;32.10;;;;;;;15.00;90.94;101061.69;6182144;23;20005;-76
2021/09/09 04:51:24;;;;;;;45.42;32.63;;;;;;;15.07;91.22;101055.53;6182710;23;20104;-75
2021/09/09 04:53:50;;;;;;;52.80;32.53;;;;;;;15.15;90.51;101059.09;6185143;23;20076;-75
2021/09/09 04:56:15;;;;;;;47.22;32.03;;;;;;;15.28;89.94;101054.66;6184331;23;20048;-77
2021/09/09 04:58:41;;;;;;;42.03;31.02;;;;;;;15.36;89.38;101046.72;6184437;23;20033;-75
2021/09/09 05:01:06;;;;;;;44.60;31.90;;;;;;;15.37;89.36;101048.50;6183177;23;20076;-76
2021/09/09 05:03:32;;;;;;;44.13;29.65;;;;;;;15.37;89.15;101048.50;6185293;23;20020;-76
2021/09/09 05:05:58;;;;;;;43.15;30.05;;;;;;;15.34;89.21;101053.78;6183982;23;20200;-77
2021/09/09 05:08:23;;;;;;;40.45;28.58;;;;;;;15.32;89.04;101050.25;6185135;23;20001;-75
2021/09/09 05:10:48;;;;;;;48.15;30.23;;;;;;;15.31;89.29;101048.47;6184291;23;20005;-77
2021/09/09 05:13:14;;;;;;;44.72;30.83;;;;;;;15.29;89.34;101040.53;6183628;23;20041;-75
2021/09/09 05:15:39;;;;;;;42.42;30.70;;;;;;;15.32;88.95;101045.81;6185930;23;20008;-76
2021/09/09 05:18:05;;;;;;;46.35;29.30;;;;;;;15.35;88.77;101044.94;6185552;23;20314;-75
2021/09/09 05:20:30;;;;;;;47.17;30.63;;;;;;;15.35;88.92;101050.25;6183930;23;20385;-76
2021/09/09 05:22:55;;;;;;;43.42;29.60;;;;;;;15.39;88.74;101046.72;6183132;23;20009;-74
2021/09/09 05:25:21;;;;;;;44.90;31.27;;;;;;;15.41;88.72;101037.00;6184031;23;20012;-78
2021/09/09 05:27:47;;;;;;;39.28;29.25;;;;;;;15.42;88.57;101045.84;6184843;23;20005;-77
2021/09/09 05:30:13;;;;;;;45.88;30.42;;;;;;;15.41;88.94;101049.34;6182486;23;19997;-75
2021/09/09 05:32:39;;;;;;;43.17;31.35;;;;;;;15.41;88.71;101050.25;6185141;23;20425;-76
2021/09/09 05:35:05;;;;;;;42.08;29.15;;;;;;;15.42;88.96;101052.00;6182544;23;20048;-75
2021/09/09 05:37:30;;;;;;;44.80;30.48;;;;;;;15.42;89.02;101040.53;6181489;23;20005;-75
2021/09/09 05:39:56;;;;;;;41.00;31.13;;;;;;;15.44;88.98;101039.66;6182320;23;20059;-75
2021/09/09 05:42:21;;;;;;;40.88;29.90;;;;;;;15.46;88.83;101043.19;6184548;23;20420;-76
2021/09/09 05:44:47;;;;;;;47.35;30.15;;;;;;;15.52;88.44;101040.53;6185567;23;20001;-75
2021/09/09 05:47:12;;;;;;;45.53;28.75;;;;;;;15.59;88.17;101043.19;6181559;23;20007;-74
2021/09/09 05:49:38;;;;;;;46.85;28.48;;;;;;;15.66;87.72;101037.84;6183568;23;20339;-77
2021/09/09 05:52:04;;;;;;;43.72;29.10;;;;;;;15.77;87.16;101032.53;6185126;23;20005;-76
2021/09/09 05:54:31;;;;;;;40.95;27.40;;;;;;;15.87;86.63;101027.22;6184919;23;20021;-76
2021/09/09 05:56:57;;;;;;;39.30;29.45;;;;;;;15.95;86.29;101029.00;6182462;23;20005;-75
2021/09/09 05:59:22;;;;;;;37.97;26.67;;;;;;;16.01;86.35;101030.75;6181811;23;19997;-76
2021/09/09 06:01:49;;;;;;;39.95;28.77;;;;;;;16.07;85.95;101032.50;6181684;23;20013;-75
2021/09/09 06:04:16;;;;;;;38.13;27.73;;;;;;;16.13;85.47;101035.16;6183099;23;20024;-76
2021/09/09 06:06:42;;;;;;;40.20;25.92;;;;;;;16.22;85.04;101042.19;6183760;23;20016;-76
2021/09/09 06:09:07;;;;;;;43.50;28.65;;;;;;;16.30;84.83;101035.06;6183146;23;20009;-75
2021/09/09 06:11:33;;;;;;;37.47;28.30;;;;;;;16.33;84.49;101038.59;6183121;23;20001;-75
2021/09/09 06:13:58;;;;;;;39.10;28.25;;;;;;;16.38;84.18;101022.63;6180447;23;20052;-79
2021/09/09 06:16:24;;;;;;;40.15;28.83;;;;;;;16.46;83.72;101025.25;6182091;23;20009;-77
2021/09/09 06:18:49;;;;;;;37.80;27.73;;;;;;;16.54;83.47;101022.56;6180518;23;20060;-76
2021/09/09 06:21:14;;;;;;;37.83;27.45;;;;;;;16.60;83.62;101026.06;6183110;23;20472;-76
2021/09/09 06:23:40;;;;;;;38.10;27.98;;;;;;;16.68;83.32;101028.69;6181499;23;20413;-76
2021/09/09 06:26:06;;;;;;;36.63;27.27;;;;;;;16.75;82.42;101022.44;6155248;23;20021;-76
2021/09/09 06:28:31;;;;;;;35.53;26.95;;;;;;;16.85;81.93;101026.81;6176358;23;20012;-76
2021/09/09 06:30:57;;;;;;;40.20;26.58;;;;;;;16.95;81.96;101032.09;6183999;23;20044;-78
2021/09/09 06:33:22;;;;;;;34.00;26.70;;;;;;;17.01;80.83;101026.72;6183121;23;20017;-77
2021/09/09 06:35:48;;;;;;;34.97;27.25;;;;;;;17.08;80.55;101022.25;6185023;23;20084;-74
2021/09/09 06:38:13;;;;;;;35.20;27.05;;;;;;;17.16;80.80;101020.44;6184420;23;20484;-76
2021/09/09 06:40:59;;;;;;;35.80;25.80;;;;;;;17.27;80.32;101012.34;6184767;23;20009;-77
2021/09/09 06:43:24;;;;;;;31.70;25.63;;;;;;;17.37;80.00;101024.69;6185940;23;20013;-76
2021/09/09 06:45:50;;;;;;;34.80;26.20;;;;;;;17.47;79.47;101026.38;6184272;23;20011;-77
2021/09/09 06:48:15;;;;;;;36.30;27.20;;;;;;;17.59;79.39;101027.13;6184055;23;20072;-75
2021/09/09 06:50:41;;;;;;;33.30;24.98;;;;;;;17.68;78.62;101017.28;6183047;23;20023;-75
2021/09/09 06:53:06;;;;;;;37.60;26.55;;;;;;;17.78;78.00;101023.38;6183399;23;20052;-76
2021/09/09 06:55:32;;;;;;;35.92;26.73;;;;;;;17.86;78.14;101048.19;6181729;23;20087;-75
2021/09/09 06:57:58;;;;;;;35.65;25.95;;;;;;;17.99;78.00;101066.72;6184074;23;20202;-76
2021/09/09 07:00:43;;;;;;;33.28;26.33;;;;;;;18.12;77.24;101063.03;6182395;23;20548;-78
2021/09/09 07:03:30;;;;;;;38.00;26.83;;;;;;;18.20;76.92;101058.50;6182608;23;20459;-76
2021/09/09 07:05:56;;;;;;;33.47;25.70;;;;;;;18.32;76.90;101053.91;6158087;23;20016;-78
2021/09/09 07:08:21;;;;;;;30.52;23.80;;;;;;;18.44;76.32;101043.09;6183475;23;20424;-76
2021/09/09 07:10:47;;;;;;;30.73;23.50;;;;;;;18.59;75.72;101046.47;6184539;23;20072;-75
2021/09/09 07:13:12;;;;;;;32.60;22.92;;;;;;;18.72;75.69;101042.72;6183853;23;20028;-76
2021/09/09 07:15:38;;;;;;;31.60;23.48;;;;;;;18.82;74.32;101044.34;6184186;23;20416;-78
2021/09/09 07:18:04;;;;;;;35.42;22.85;;;;;;;18.97;74.28;101042.41;6183291;23;20032;-77
2021/09/09 07:20:29;;;;;;;32.83;21.92;;;;;;;19.11;73.07;101040.38;6183549;23;20016;-76
2021/09/09 07:22:55;;;;;;;33.50;21.42;;;;;;;19.21;72.28;101042.00;6181916;23;20431;-78
2021/09/09 07:25:21;;;;;;;30.15;20.30;;;;;;;19.32;72.35;101027.63;6183808;23;20075;-77
2021/09/09 07:27:46;;;;;;;26.85;21.52;;;;;;;19.43;71.53;101014.97;6183379;23;20421;-76
2021/09/09 07:30:12;;;;;;;33.65;21.13;;;;;;;19.54;70.99;101015.63;6157710;23;20346;-77
2021/09/09 07:32:37;;;;;;;31.13;20.52;;;;;;;19.59;72.30;101020.91;6178884;23;20019;-75
2021/09/09 07:35:04;;;;;;;31.50;19.92;;;;;;;19.71;72.30;101017.16;6179314;23;20076;-76
2021/09/09 07:37:30;;;;;;;30.27;19.85;;;;;;;19.80;70.84;101013.41;6180828;23;20420;-76
2021/09/09 07:39:55;;;;;;;31.38;20.67;;;;;;;19.91;69.79;101016.78;6181765;23;20072;-77
2021/09/09 07:42:20;;;;;;;26.05;19.83;;;;;;;20.05;70.10;101024.53;6181730;23;20373;-76
2021/09/09 07:44:46;;;;;;;27.60;18.42;;;;;;;20.13;69.78;101022.59;6181852;23;20075;-75
2021/09/09 07:47:11;;;;;;;29.20;19.50;;;;;;;20.21;69.46;101009.94;6181586;23;20083;-75
2021/09/09 07:49:37;;;;;;;29.58;18.20;;;;;;;20.39;69.13;101016.69;6181913;23;20001;-75
2021/09/09 07:52:03;;;;;;;27.80;18.65;;;;;;;20.59;67.98;101025.19;6181661;23;20041;-76
2021/09/09 07:54:28;;;;;;;23.85;17.98;;;;;;;20.76;68.39;101028.41;6178574;23;20084;-75
2021/09/09 07:56:54;;;;;;;21.25;17.10;;;;;;;20.82;67.43;101017.56;6174432;23;20443;-77
2021/09/09 07:59:19;;;;;;;24.50;17.05;;;;;;;20.80;66.92;101030.09;6177871;23;20001;-75
2021/09/09 08:01:44;;;;;;;24.15;16.33;;;;;;;20.92;66.53;101028.03;6180665;23;20060;-76
2021/09/09 08:04:15;;;;;;;25.33;17.25;;;;;;;20.98;67.19;101034.13;6184364;23;20005;-76
2021/09/09 08:06:43;;;;;;;21.38;17.48;;;;;;;21.05;65.77;101029.50;6183910;23;20025;-77
2021/09/09 08:09:09;;;;;;;21.35;15.90;;;;;;;21.17;66.84;101039.03;6183063;23;20059;-75
2021/09/09 08:11:34;;;;;;;24.27;15.98;;;;;;;21.21;67.31;101038.91;6184076;23;20084;-76
2021/09/09 08:14:00;;;;;;;22.15;15.10;;;;;;;21.43;65.19;101032.16;6183880;23;20001;-76
2021/09/09 08:16:25;;;;;;;25.92;16.45;;;;;;;21.66;65.36;101034.25;6183673;23;20321;-77
2021/09/09 08:18:51;;;;;;;21.52;15.15;;;;;;;21.84;63.63;101027.50;6183895;23;20012;-76
2021/09/09 08:21:16;;;;;;;23.92;16.63;;;;;;;22.00;63.25;101036.91;6183205;23;20017;-76
2021/09/09 08:23:41;;;;;;;23.58;15.95;;;;;;;22.08;63.30;101043.84;6183614;23;20002;-77
2021/09/09 08:26:08;;;;;;;23.27;17.33;;;;;;;22.23;61.55;101046.06;6183970;23;20012;-76
2021/09/09 08:28:34;;;;;;;20.55;15.50;;;;;;;22.44;62.96;101055.34;6185941;23;20009;-75
2021/09/09 08:31:00;;;;;;;27.50;15.45;;;;;;;22.67;62.94;101051.09;6186422;23;20001;-77
2021/09/09 08:33:25;;;;;;;26.65;18.13;;;;;;;22.69;61.49;101049.22;6185816;23;20020;-76
2021/09/09 08:35:50;;;;;;;24.75;18.17;;;;;;;22.73;61.29;101050.88;6185203;23;20011;-75
2021/09/09 08:38:16;;;;;;;23.60;17.90;;;;;;;22.82;61.95;101052.44;6184887;23;20360;-77
2021/09/09 08:40:42;;;;;;;21.00;18.08;;;;;;;22.77;61.96;101049.00;6186137;23;20005;-76
2021/09/09 08:43:08;;;;;;;26.23;19.13;;;;;;;22.84;62.43;101051.44;6185475;23;20012;-75
2021/09/09 08:45:34;;;;;;;28.30;18.95;;;;;;;22.90;61.56;101039.63;6185482;23;20067;-76
2021/09/09 08:48:08;;;;;;;25.30;19.73;;;;;;;22.95;62.00;101047.53;6186088;23;20020;-76
2021/09/09 08:50:35;;;;;;;28.08;18.88;;;;;;;22.95;61.84;101039.47;6186033;23;19997;-75
2021/09/09 08:53:02;;;;;;;25.40;18.35;;;;;;;23.06;60.97;101031.94;6185519;23;20013;-75
2021/09/09 08:55:28;;;;;;;24.45;19.70;;;;;;;23.02;61.47;101038.34;6184889;23;20663;-76
2021/09/09 08:57:59;;;;;;;29.60;19.65;;;;;;;22.95;62.42;101047.53;6185386;23;20031;-76
2021/09/09 09:00:25;;;;;;;22.33;17.25;;;;;;;23.08;62.89;101044.41;6184550;23;20015;-76
2021/09/09 09:02:57;;;;;;;29.63;17.92;;;;;;;23.18;62.64;101061.13;6185978;23;20076;-75
2021/09/09 09:05:24;;;;;;;25.02;18.92;;;;;;;23.19;63.12;101068.25;6185790;23;20005;-75
2021/09/09 09:08:15;;;;;;;27.20;19.48;;;;;;;23.28;61.17;101063.50;6185442;23;20036;-76
2021/09/09 09:10:41;;;;;;;26.55;18.25;;;;;;;23.40;61.89;101060.44;6179473;23;20368;-77
2021/09/09 09:13:11;;;;;;;25.38;17.10;;;;;;;23.61;59.35;101047.19;6186088;23;20052;-77
2021/09/09 09:15:36;;;;;;;23.33;18.00;;;;;;;23.78;60.17;101054.63;6186257;23;20020;-77
2021/09/09 09:18:02;;;;;;;26.73;19.55;;;;;;;23.97;60.62;101050.41;6185721;23;20439;-77
2021/09/09 09:20:52;;;;;;;25.20;18.05;;;;;;;24.35;58.68;101044.53;6185651;23;20084;-76
2021/09/09 09:23:28;;;;;;;26.23;18.38;;;;;;;24.66;57.59;101049.66;6185019;23;20457;-75
2021/09/09 09:25:58;;;;;;;24.70;17.27;;;;;;;24.90;57.38;101053.16;6184564;23;20024;-75
2021/09/09 09:28:58;;;;;;;26.38;17.40;;;;;;;25.16;57.01;101059.31;6184036;23;20016;-76
2021/09/09 09:31:43;;;;;;;23.05;16.48;;;;;;;25.59;55.56;101052.16;6162087;23;20025;-76
2021/09/09 09:34:18;;;;;;;25.80;17.30;;;;;;;26.08;53.64;101037.50;6182512;23;20020;-76
2021/09/09 09:36:43;;;;;;;27.17;16.85;;;;;;;26.61;52.54;101040.47;6183962;23;20009;-77
2021/09/09 09:39:10;;;;;;;25.27;18.50;;;;;;;27.21;51.71;101046.56;6183528;23;20035;-76
2021/09/09 09:41:56;;;;;;;21.60;15.10;;;;;;;28.11;50.50;101047.38;6183984;23;20001;-75
2021/09/09 09:44:31;;;;;;;26.95;16.80;;;;;;;28.17;49.07;101044.34;6185044;23;20008;-76
2021/09/09 09:47:16;;;;;;;26.20;17.92;;;;;;;28.01;49.24;101038.00;6185061;23;20005;-77
2021/09/09 09:49:54;;;;;;;25.25;17.52;;;;;;;28.36;48.94;101046.03;6184849;23;20060;-75
2021/09/09 09:52:25;;;;;;;20.52;15.60;;;;;;;29.08;47.50;101039.28;6183762;23;20079;-75
2021/09/09 09:54:53;;;;;;;22.98;16.17;;;;;;;29.63;45.79;101041.53;6184939;23;20001;-75
2021/09/09 09:57:20;;;;;;;25.77;16.05;;;;;;;30.32;44.54;101036.38;6184252;23;20449;-77
2021/09/09 09:59:45;;;;;;;22.40;16.20;;;;;;;30.31;44.15;101031.97;6184471;23;20310;-76
2021/09/09 10:02:11;;;;;;;23.30;18.10;;;;;;;30.01;44.52;101027.50;6183298;23;20068;-76
2021/09/09 10:04:42;;;;;;;28.33;16.65;;;;;;;29.87;45.23;101026.50;6184138;23;20001;-76
2021/09/09 10:07:28;;;;;;;22.27;16.65;;;;;;;29.86;45.93;101024.75;6183101;23;20013;-76
2021/09/09 10:10:01;;;;;;;22.83;16.13;;;;;;;30.28;44.57;101028.44;6184134;23;20314;-77
2021/09/09 10:12:27;;;;;;;21.00;14.90;;;;;;;30.88;42.28;101017.41;6184146;23;20011;-76
2021/09/09 10:14:55;;;;;;;25.35;16.65;;;;;;;30.58;44.10;101023.91;6183496;23;20340;-75
2021/09/09 10:17:41;;;;;;;34.13;18.33;;;;;;;30.74;43.50;101016.50;6183217;23;20032;-77
2021/09/09 10:20:33;;;;;;;24.00;17.02;;;;;;;31.12;44.19;101031.25;6181997;23;20005;-77
2021/09/09 10:23:25;;;;;;;21.85;14.93;;;;;;;31.60;42.82;101030.75;6183192;23;20020;-76
2021/09/09 10:26:26;;;;;;;21.85;15.68;;;;;;;32.49;41.24;101022.66;6185120;23;20008;-79
2021/09/09 10:28:51;;;;;;;22.25;15.85;;;;;;;32.67;39.54;101025.91;6184031;23;20005;-76
2021/09/09 10:31:42;;;;;;;23.98;15.68;;;;;;;33.62;37.67;101024.16;6184093;23;20009;-78
2021/09/09 10:34:23;;;;;;;21.98;15.32;;;;;;;33.50;38.92;101030.56;6184095;23;20013;-75
2021/09/09 10:36:49;;;;;;;17.02;14.75;;;;;;;33.99;37.60;101025.00;6184283;23;20021;-77
2021/09/09 10:39:21;;;;;;;17.88;14.25;;;;;;;33.35;39.05;101020.84;6183586;23;20108;-76
2021/09/09 10:42:25;;;;;;;15.93;13.33;;;;;;;34.03;38.58;101026.50;6184317;23;20436;-77
2021/09/09 10:44:50;;;;;;;20.45;15.63;;;;;;;33.42;38.88;101022.09;6183890;23;20015;-77
2021/09/09 10:47:19;;;;;;;22.52;14.75;;;;;;;33.89;37.85;101027.59;6182851;23;20083;-77
2021/09/09 10:49:45;;;;;;;24.98;16.58;;;;;;;34.24;36.57;101024.75;6183082;23;19997;-77
2021/09/09 10:52:13;;;;;;;20.92;16.23;;;;;;;33.75;37.75;101025.91;6184534;23;20005;-76
2021/09/09 10:55:02;;;;;;;22.10;16.40;;;;;;;34.11;37.00;101024.88;6184707;23;20013;-77
2021/09/09 10:57:27;;;;;;;24.00;17.42;;;;;;;33.73;37.17;101019.72;6184521;23;20076;-74
2021/09/09 10:59:52;;;;;;;24.77;16.75;;;;;;;33.45;38.51;101021.88;6185161;23;20047;-77
2021/09/09 11:02:18;;;;;;;18.70;15.43;;;;;;;33.50;39.67;101029.72;6182116;23;20015;-74
2021/09/09 11:04:45;;;;;;;23.88;16.92;;;;;;;33.34;38.40;101024.56;6184436;23;20001;-74
2021/09/09 11:07:31;;;;;;;21.92;18.05;;;;;;;32.97;39.52;101027.34;6185673;23;20491;-74
2021/09/09 11:10:05;;;;;;;19.17;15.23;;;;;;;33.23;37.93;101015.31;6185215;23;20001;-75
2021/09/09 11:12:41;;;;;;;20.42;13.13;;;;;;;33.35;37.66;101015.41;6185208;23;20004;-75